Terminal Aerodrome Forecast
Issued by NWS

Home | Current Version | Previous Version | Text Only | Print | Product List | Glossary On
Versions: 1 2 3 4 5 6 7 8 9 10 11 12 13 14 15
000
FTUS46 KSTO 191728
TAFRDD
TAF
KRDD 191728Z 1918/2018 VRB04KT P6SM SCT250
     FM200500 17004KT P6SM OVC100
     FM201200 15004KT 6SM BR OVC035
      TEMPO 2012/2016 5SM -RA OVC035
     FM201600 16007KT 4SM -RA BR OVC015=

USA.gov is the U.S. government's official web portal to all federal, state and local government web resources and services.